sensor_id;sensor_type;location;lat;lon;timestamp;pressure;altitude;pressure_sealevel;temperature;humidity
59289;BME280;45056;47.602;9.886;2022-09-06T00:01:29;93236.81;;;19.22;58.16
59289;BME280;45056;47.602;9.886;2022-09-06T00:03:59;93246.34;;;19.27;57.67
59289;BME280;45056;47.602;9.886;2022-09-06T00:06:27;93247.66;;;19.31;56.94
59289;BME280;45056;47.602;9.886;2022-09-06T00:08:55;93246.94;;;19.37;56.45
59289;BME280;45056;47.602;9.886;2022-09-06T00:11:23;93242.69;;;19.41;55.79
59289;BME280;45056;47.602;9.886;2022-09-06T00:13:51;93238.44;;;19.46;55.61
59289;BME280;45056;47.602;9.886;2022-09-06T00:16:21;93240.50;;;19.51;55.17
59289;BME280;45056;47.602;9.886;2022-09-06T00:18:52;93244.53;;;19.56;55.01
59289;BME280;45056;47.602;9.886;2022-09-06T00:21:24;93238.53;;;19.57;54.89
59289;BME280;45056;47.602;9.886;2022-09-06T00:23:54;93239.00;;;19.56;55.22
59289;BME280;45056;47.602;9.886;2022-09-06T00:26:23;93240.00;;;19.53;55.63
59289;BME280;45056;47.602;9.886;2022-09-06T00:28:51;93250.50;;;19.49;56.00
59289;BME280;45056;47.602;9.886;2022-09-06T00:31:22;93247.22;;;19.44;55.99
59289;BME280;45056;47.602;9.886;2022-09-06T00:33:52;93253.94;;;19.38;56.49
59289;BME280;45056;47.602;9.886;2022-09-06T00:36:21;93252.66;;;19.33;56.72
59289;BME280;45056;47.602;9.886;2022-09-06T00:38:49;93254.41;;;19.30;56.79
59289;BME280;45056;47.602;9.886;2022-09-06T00:41:18;93253.38;;;19.28;56.75
59289;BME280;45056;47.602;9.886;2022-09-06T00:43:46;93255.66;;;19.29;56.88
59289;BME280;45056;47.602;9.886;2022-09-06T00:46:18;93252.41;;;19.31;57.12
59289;BME280;45056;47.602;9.886;2022-09-06T00:48:53;93269.00;;;19.37;57.16
59289;BME280;45056;47.602;9.886;2022-09-06T00:51:27;93275.03;;;19.41;57.06
59289;BME280;45056;47.602;9.886;2022-09-06T00:54:01;93286.13;;;19.46;56.31
59289;BME280;45056;47.602;9.886;2022-09-06T00:56:32;93275.66;;;19.56;55.21
59289;BME280;45056;47.602;9.886;2022-09-06T00:59:05;93277.44;;;19.65;54.75
59289;BME280;45056;47.602;9.886;2022-09-06T01:01:34;93285.53;;;19.74;54.29
59289;BME280;45056;47.602;9.886;2022-09-06T01:04:03;93279.06;;;19.83;53.93
59289;BME280;45056;47.602;9.886;2022-09-06T01:06:44;93279.09;;;19.89;53.76
59289;BME280;45056;47.602;9.886;2022-09-06T01:09:38;93275.63;;;19.94;53.33
59289;BME280;45056;47.602;9.886;2022-09-06T01:12:37;93266.38;;;19.97;52.94
59289;BME280;45056;47.602;9.886;2022-09-06T01:15:23;93276.69;;;20.02;53.08
59289;BME280;45056;47.602;9.886;2022-09-06T01:18:15;93276.69;;;20.02;52.81
59289;BME280;45056;47.602;9.886;2022-09-06T01:21:08;93285.22;;;20.04;52.50
59289;BME280;45056;47.602;9.886;2022-09-06T01:24:22;93283.19;;;20.05;52.45
59289;BME280;45056;47.602;9.886;2022-09-06T01:27:36;93278.44;;;20.06;52.52
59289;BME280;45056;47.602;9.886;2022-09-06T01:30:33;93267.88;;;20.04;52.41
59289;BME280;45056;47.602;9.886;2022-09-06T01:33:15;93269.91;;;20.03;52.37
59289;BME280;45056;47.602;9.886;2022-09-06T01:35:54;93270.66;;;20.04;52.35
59289;BME280;45056;47.602;9.886;2022-09-06T01:38:26;93269.41;;;20.05;52.18
59289;BME280;45056;47.602;9.886;2022-09-06T01:40:55;93261.38;;;20.07;52.07
59289;BME280;45056;47.602;9.886;2022-09-06T01:43:29;93273.94;;;20.08;52.08
59289;BME280;45056;47.602;9.886;2022-09-06T01:46:07;93269.16;;;20.09;51.98
59289;BME280;45056;47.602;9.886;2022-09-06T01:48:59;93272.19;;;20.11;51.90
59289;BME280;45056;47.602;9.886;2022-09-06T01:51:52;93274.19;;;20.10;51.85
59289;BME280;45056;47.602;9.886;2022-09-06T01:54:45;93272.19;;;20.11;51.63
59289;BME280;45056;47.602;9.886;2022-09-06T01:57:41;93263.41;;;20.12;51.50
59289;BME280;45056;47.602;9.886;2022-09-06T02:00:34;93260.16;;;20.14;51.17
59289;BME280;45056;47.602;9.886;2022-09-06T02:03:23;93260.41;;;20.16;50.92
59289;BME280;45056;47.602;9.886;2022-09-06T02:06:03;93256.16;;;20.21;50.62
59289;BME280;45056;47.602;9.886;2022-09-06T02:08:40;93270.50;;;20.25;50.44
59289;BME280;45056;47.602;9.886;2022-09-06T02:11:14;93267.22;;;20.26;49.87
59289;BME280;45056;47.602;9.886;2022-09-06T02:13:49;93268.25;;;20.29;49.95
59289;BME280;45056;47.602;9.886;2022-09-06T02:16:26;93276.28;;;20.32;50.06
59289;BME280;45056;47.602;9.886;2022-09-06T02:19:05;93274.78;;;20.37;50.02
59289;BME280;45056;47.602;9.886;2022-09-06T02:21:43;93251.69;;;20.40;49.81
59289;BME280;45056;47.602;9.886;2022-09-06T02:24:19;93245.66;;;20.42;49.78
59289;BME280;45056;47.602;9.886;2022-09-06T02:26:49;93244.66;;;20.45;49.69
59289;BME280;45056;47.602;9.886;2022-09-06T02:29:18;93248.47;;;20.47;49.83
59289;BME280;45056;47.602;9.886;2022-09-06T02:31:52;93238.91;;;20.49;49.99
59289;BME280;45056;47.602;9.886;2022-09-06T02:34:26;93243.19;;;20.50;50.19
59289;BME280;45056;47.602;9.886;2022-09-06T02:36:55;93237.16;;;20.51;50.30
59289;BME280;45056;47.602;9.886;2022-09-06T02:39:24;93253.47;;;20.49;50.41
59289;BME280;45056;47.602;9.886;2022-09-06T02:41:52;93274.84;;;20.49;50.74
59289;BME280;45056;47.602;9.886;2022-09-06T02:44:21;93300.19;;;20.47;50.93
59289;BME280;45056;47.602;9.886;2022-09-06T02:46:50;93282.09;;;20.46;51.21
59289;BME280;45056;47.602;9.886;2022-09-06T02:49:18;93279.09;;;20.44;51.13
59289;BME280;45056;47.602;9.886;2022-09-06T02:51:46;93272.78;;;20.43;50.91
59289;BME280;45056;47.602;9.886;2022-09-06T02:54:17;93277.31;;;20.41;50.92
59289;BME280;45056;47.602;9.886;2022-09-06T02:56:46;93270.50;;;20.36;51.93
59289;BME280;45056;47.602;9.886;2022-09-06T02:59:14;93276.53;;;20.29;52.41
59289;BME280;45056;47.602;9.886;2022-09-06T03:01:42;93266.69;;;20.22;52.97
59289;BME280;45056;47.602;9.886;2022-09-06T03:04:14;93262.44;;;20.15;53.67
59289;BME280;45056;47.602;9.886;2022-09-06T03:06:42;93260.88;;;20.09;54.18
59289;BME280;45056;47.602;9.886;2022-09-06T03:09:10;93256.09;;;20.03;54.53
59289;BME280;45056;47.602;9.886;2022-09-06T03:11:38;93254.06;;;19.98;54.75
59289;BME280;45056;47.602;9.886;2022-09-06T03:14:06;93249.81;;;19.97;55.07
59289;BME280;45056;47.602;9.886;2022-09-06T03:16:35;93253.78;;;19.96;55.25
59289;BME280;45056;47.602;9.886;2022-09-06T03:19:03;93277.13;;;19.95;55.12
59289;BME280;45056;47.602;9.886;2022-09-06T03:21:33;93335.63;;;19.94;55.33
59289;BME280;45056;47.602;9.886;2022-09-06T03:24:01;93298.69;;;19.91;55.73
59289;BME280;45056;47.602;9.886;2022-09-06T03:28:59;93318.28;;;19.93;56.63
59289;BME280;45056;47.602;9.886;2022-09-06T03:31:27;93337.13;;;19.95;57.02
59289;BME280;45056;47.602;9.886;2022-09-06T03:33:54;93354.19;;;19.93;58.03
59289;BME280;45056;47.602;9.886;2022-09-06T03:36:22;93363.66;;;19.86;59.25
59289;BME280;45056;47.602;9.886;2022-09-06T03:38:52;93368.88;;;19.79;60.22
59289;BME280;45056;47.602;9.886;2022-09-06T03:41:21;93378.88;;;19.70;61.46
59289;BME280;45056;47.602;9.886;2022-09-06T03:43:49;93359.97;;;19.57;62.25
59289;BME280;45056;47.602;9.886;2022-09-06T03:46:18;93359.31;;;19.42;63.33
59289;BME280;45056;47.602;9.886;2022-09-06T03:48:45;93353.44;;;19.28;63.95
59289;BME280;45056;47.602;9.886;2022-09-06T03:51:14;93354.84;;;19.18;64.54
59289;BME280;45056;47.602;9.886;2022-09-06T03:53:42;93357.03;;;19.08;64.83
59289;BME280;45056;47.602;9.886;2022-09-06T03:56:11;93335.81;;;18.94;65.30
59289;BME280;45056;47.602;9.886;2022-09-06T03:58:40;93337.22;;;18.83;65.81
59289;BME280;45056;47.602;9.886;2022-09-06T04:01:10;93330.34;;;18.73;66.12
59289;BME280;45056;47.602;9.886;2022-09-06T04:03:39;93319.75;;;18.66;66.35
59289;BME280;45056;47.602;9.886;2022-09-06T04:06:08;93308.41;;;18.58;66.58
59289;BME280;45056;47.602;9.886;2022-09-06T04:08:36;93302.00;;;18.46;66.93
59289;BME280;45056;47.602;9.886;2022-09-06T04:11:05;93295.13;;;18.36;67.25
59289;BME280;45056;47.602;9.886;2022-09-06T04:13:35;93296.78;;;18.27;67.74
59289;BME280;45056;47.602;9.886;2022-09-06T04:16:05;93306.00;;;18.24;67.58
59289;BME280;45056;47.602;9.886;2022-09-06T04:18:33;93310.75;;;18.24;67.25
59289;BME280;45056;47.602;9.886;2022-09-06T04:21:01;93310.28;;;18.25;67.02
59289;BME280;45056;47.602;9.886;2022-09-06T04:23:29;93307.81;;;18.27;66.86
59289;BME280;45056;47.602;9.886;2022-09-06T04:25:58;93295.81;;;18.30;66.79
59289;BME280;45056;47.602;9.886;2022-09-06T04:28:26;93315.38;;;18.33;66.80
59289;BME280;45056;47.602;9.886;2022-09-06T04:30:58;93306.63;;;18.34;66.68
59289;BME280;45056;47.602;9.886;2022-09-06T04:33:28;93301.88;;;18.35;66.69
59289;BME280;45056;47.602;9.886;2022-09-06T04:36:00;93293.88;;;18.37;66.55
59289;BME280;45056;47.602;9.886;2022-09-06T04:38:34;93291.41;;;18.39;66.36
59289;BME280;45056;47.602;9.886;2022-09-06T04:41:05;93301.94;;;18.40;66.28
59289;BME280;45056;47.602;9.886;2022-09-06T04:43:33;93297.19;;;18.41;66.00
59289;BME280;45056;47.602;9.886;2022-09-06T04:46:05;93303.94;;;18.40;65.79
59289;BME280;45056;47.602;9.886;2022-09-06T04:48:41;93316.47;;;18.41;65.85
59289;BME280;45056;47.602;9.886;2022-09-06T04:51:09;93337.56;;;18.44;65.83
59289;BME280;45056;47.602;9.886;2022-09-06T04:53:37;93362.13;;;18.48;65.93
59289;BME280;45056;47.602;9.886;2022-09-06T04:56:06;93356.13;;;18.49;65.96
59289;BME280;45056;47.602;9.886;2022-09-06T04:58:34;93360.41;;;18.50;66.12
59289;BME280;45056;47.602;9.886;2022-09-06T05:01:03;93382.19;;;18.48;66.25
59289;BME280;45056;47.602;9.886;2022-09-06T05:03:31;93388.16;;;18.46;67.06
59289;BME280;45056;47.602;9.886;2022-09-06T05:06:05;93388.09;;;18.41;67.80
59289;BME280;45056;47.602;9.886;2022-09-06T05:08:36;93416.03;;;18.34;68.28
59289;BME280;45056;47.602;9.886;2022-09-06T05:11:07;93409.44;;;18.25;68.66
59289;BME280;45056;47.602;9.886;2022-09-06T05:13:37;93401.84;;;18.20;68.96
59289;BME280;45056;47.602;9.886;2022-09-06T05:16:08;93392.75;;;18.14;69.12
59289;BME280;45056;47.602;9.886;2022-09-06T05:18:37;93393.72;;;18.11;69.32
59289;BME280;45056;47.602;9.886;2022-09-06T05:21:05;93402.44;;;18.09;69.50
59289;BME280;45056;47.602;9.886;2022-09-06T05:23:33;93386.41;;;18.08;69.68
59289;BME280;45056;47.602;9.886;2022-09-06T05:26:01;93395.91;;;18.07;69.97
59289;BME280;45056;47.602;9.886;2022-09-06T05:28:29;93398.38;;;18.05;69.87
59289;BME280;45056;47.602;9.886;2022-09-06T05:31:07;93385.56;;;18.01;70.10
59289;BME280;45056;47.602;9.886;2022-09-06T05:33:37;93386.50;;;17.98;70.12
59289;BME280;45056;47.602;9.886;2022-09-06T05:36:06;93383.75;;;17.98;70.36
59289;BME280;45056;47.602;9.886;2022-09-06T05:38:35;93385.00;;;17.97;70.48
59289;BME280;45056;47.602;9.886;2022-09-06T05:41:03;93387.75;;;17.97;70.34
59289;BME280;45056;47.602;9.886;2022-09-06T05:43:31;93388.97;;;17.96;70.34
59289;BME280;45056;47.602;9.886;2022-09-06T05:45:59;93382.41;;;17.94;70.51
59289;BME280;45056;47.602;9.886;2022-09-06T05:48:28;93385.94;;;17.94;70.65
59289;BME280;45056;47.602;9.886;2022-09-06T05:51:00;93381.22;;;17.95;70.42
59289;BME280;45056;47.602;9.886;2022-09-06T05:53:32;93380.44;;;17.94;70.52
59289;BME280;45056;47.602;9.886;2022-09-06T05:56:02;93367.91;;;17.93;70.27
59289;BME280;45056;47.602;9.886;2022-09-06T05:58:31;93381.41;;;17.91;70.17
59289;BME280;45056;47.602;9.886;2022-09-06T06:01:06;93378.66;;;17.91;70.32
59289;BME280;45056;47.602;9.886;2022-09-06T06:03:41;93371.13;;;17.92;70.31
59289;BME280;45056;47.602;9.886;2022-09-06T06:06:16;93371.91;;;17.92;70.33
59289;BME280;45056;47.602;9.886;2022-09-06T06:08:45;93380.91;;;17.93;69.83
59289;BME280;45056;47.602;9.886;2022-09-06T06:11:14;93374.66;;;17.92;69.89
59289;BME280;45056;47.602;9.886;2022-09-06T06:13:43;93372.19;;;17.94;70.07
59289;BME280;45056;47.602;9.886;2022-09-06T06:16:12;93373.41;;;17.93;70.04
59289;BME280;45056;47.602;9.886;2022-09-06T06:18:43;93373.69;;;17.95;70.36
59289;BME280;45056;47.602;9.886;2022-09-06T06:21:14;93374.94;;;17.94;70.28
59289;BME280;45056;47.602;9.886;2022-09-06T06:23:44;93371.22;;;17.97;70.32
59289;BME280;45056;47.602;9.886;2022-09-06T06:26:13;93363.72;;;17.98;69.97
59289;BME280;45056;47.602;9.886;2022-09-06T06:28:41;93360.47;;;17.99;69.97
59289;BME280;45056;47.602;9.886;2022-09-06T06:31:10;93363.81;;;18.03;69.73
59289;BME280;45056;47.602;9.886;2022-09-06T06:33:39;93357.34;;;18.07;69.37
59289;BME280;45056;47.602;9.886;2022-09-06T06:36:19;93355.19;;;18.11;69.16
59289;BME280;45056;47.602;9.886;2022-09-06T06:38:51;93360.97;;;18.13;68.67
59289;BME280;45056;47.602;9.886;2022-09-06T06:41:22;93360.28;;;18.18;68.74
59289;BME280;45056;47.602;9.886;2022-09-06T06:43:52;93353.78;;;18.21;68.54
59289;BME280;45056;47.602;9.886;2022-09-06T06:46:22;93356.31;;;18.25;68.32
59289;BME280;45056;47.602;9.886;2022-09-06T06:48:52;93357.38;;;18.27;67.98
59289;BME280;45056;47.602;9.886;2022-09-06T06:51:24;93349.66;;;18.31;67.89
59289;BME280;45056;47.602;9.886;2022-09-06T06:53:54;93353.72;;;18.36;67.85
59289;BME280;45056;47.602;9.886;2022-09-06T06:56:25;93358.34;;;18.45;67.32
59289;BME280;45056;47.602;9.886;2022-09-06T06:58:56;93352.25;;;18.62;67.12
59289;BME280;45056;47.602;9.886;2022-09-06T07:01:28;93355.66;;;18.98;66.01
59289;BME280;45056;47.602;9.886;2022-09-06T07:03:58;93357.41;;;19.54;64.69
59289;BME280;45056;47.602;9.886;2022-09-06T07:06:28;93355.97;;;19.96;62.97
59289;BME280;45056;47.602;9.886;2022-09-06T07:08:57;93350.03;;;20.15;62.31
59289;BME280;45056;47.602;9.886;2022-09-06T07:11:25;93351.84;;;20.24;62.13
59289;BME280;45056;47.602;9.886;2022-09-06T07:13:53;93355.09;;;20.22;61.95
59289;BME280;45056;47.602;9.886;2022-09-06T07:16:23;93347.28;;;20.15;61.92
59289;BME280;45056;47.602;9.886;2022-09-06T07:18:52;93350.53;;;20.08;62.16
59289;BME280;45056;47.602;9.886;2022-09-06T07:21:22;93349.75;;;20.01;62.48
59289;BME280;45056;47.602;9.886;2022-09-06T07:23:54;93349.22;;;19.97;62.70
59289;BME280;45056;47.602;9.886;2022-09-06T07:26:24;93345.94;;;19.99;62.53
59289;BME280;45056;47.602;9.886;2022-09-06T07:28:55;93355.53;;;20.03;62.53
59289;BME280;45056;47.602;9.886;2022-09-06T07:31:25;93346.25;;;20.07;62.03
59289;BME280;45056;47.602;9.886;2022-09-06T07:33:53;93347.50;;;20.06;62.19
59289;BME280;45056;47.602;9.886;2022-09-06T07:36:21;93353.81;;;20.12;62.07
59289;BME280;45056;47.602;9.886;2022-09-06T07:38:50;93357.09;;;20.16;61.83
59289;BME280;45056;47.602;9.886;2022-09-06T07:41:19;93359.38;;;20.17;61.66
59289;BME280;45056;47.602;9.886;2022-09-06T07:43:51;93351.56;;;20.16;61.51
59289;BME280;45056;47.602;9.886;2022-09-06T07:46:20;93338.47;;;20.11;61.34
59289;BME280;45056;47.602;9.886;2022-09-06T07:48:49;93332.91;;;20.05;61.34
59289;BME280;45056;47.602;9.886;2022-09-06T07:51:18;93326.41;;;20.02;61.43
59289;BME280;45056;47.602;9.886;2022-09-06T07:53:49;93337.44;;;20.02;61.55
59289;BME280;45056;47.602;9.886;2022-09-06T07:56:21;93331.91;;;20.02;61.75
59289;BME280;45056;47.602;9.886;2022-09-06T07:58:51;93326.41;;;20.02;61.67
59289;BME280;45056;47.602;9.886;2022-09-06T08:01:26;93332.66;;;20.03;61.94
59289;BME280;45056;47.602;9.886;2022-09-06T08:03:57;93319.34;;;20.01;61.59
59289;BME280;45056;47.602;9.886;2022-09-06T08:06:28;93320.88;;;20.02;61.44
59289;BME280;45056;47.602;9.886;2022-09-06T08:08:59;93321.63;;;20.03;61.58
59289;BME280;45056;47.602;9.886;2022-09-06T08:11:30;93322.38;;;20.03;61.42
59289;BME280;45056;47.602;9.886;2022-09-06T08:14:01;93319.63;;;20.03;61.12
59289;BME280;45056;47.602;9.886;2022-09-06T08:16:34;93319.63;;;20.03;61.10
59289;BME280;45056;47.602;9.886;2022-09-06T08:19:05;93318.09;;;20.02;61.21
59289;BME280;45056;47.602;9.886;2022-09-06T08:21:35;93314.34;;;20.06;61.20
59289;BME280;45056;47.602;9.886;2022-09-06T08:24:06;93314.66;;;20.13;61.22
59289;BME280;45056;47.602;9.886;2022-09-06T08:26:38;93313.91;;;20.18;61.01
59289;BME280;45056;47.602;9.886;2022-09-06T08:29:09;93302.38;;;20.26;61.02
59289;BME280;45056;47.602;9.886;2022-09-06T08:31:40;93308.19;;;20.33;61.08
59289;BME280;45056;47.602;9.886;2022-09-06T08:34:09;93309.22;;;20.42;60.49
59289;BME280;45056;47.602;9.886;2022-09-06T08:36:40;93314.78;;;20.47;60.42
59289;BME280;45056;47.602;9.886;2022-09-06T08:39:09;93316.28;;;20.54;60.33
59289;BME280;45056;47.602;9.886;2022-09-06T08:41:46;93313.56;;;20.60;60.40
59289;BME280;45056;47.602;9.886;2022-09-06T08:44:21;93303.00;;;20.64;60.15
59289;BME280;45056;47.602;9.886;2022-09-06T08:46:57;93308.56;;;20.70;60.16
59289;BME280;45056;47.602;9.886;2022-09-06T08:49:31;93312.09;;;20.76;60.09
59289;BME280;45056;47.602;9.886;2022-09-06T08:52:32;93311.63;;;20.83;59.79
59289;BME280;45056;47.602;9.886;2022-09-06T08:55:28;93301.59;;;20.92;59.57
59289;BME280;45056;47.602;9.886;2022-09-06T08:58:21;93312.66;;;21.03;59.69
59289;BME280;45056;47.602;9.886;2022-09-06T09:01:13;93319.47;;;21.13;58.93
59289;BME280;45056;47.602;9.886;2022-09-06T09:03:45;93307.16;;;21.20;57.93
59289;BME280;45056;47.602;9.886;2022-09-06T09:06:13;93301.88;;;21.28;57.88
59289;BME280;45056;47.602;9.886;2022-09-06T09:08:48;93307.38;;;21.33;58.13
59289;BME280;45056;47.602;9.886;2022-09-06T09:11:28;93307.91;;;21.43;58.17
59289;BME280;45056;47.602;9.886;2022-09-06T09:14:04;93306.66;;;21.50;57.84
59289;BME280;45056;47.602;9.886;2022-09-06T09:16:39;93308.91;;;21.57;57.87
59289;BME280;45056;47.602;9.886;2022-09-06T09:19:06;93319.47;;;21.65;57.76
59289;BME280;45056;47.602;9.886;2022-09-06T09:21:37;93300.88;;;21.71;57.96
59289;BME280;45056;47.602;9.886;2022-09-06T09:24:08;93315.94;;;21.75;58.06
59289;BME280;45056;47.602;9.886;2022-09-06T09:26:47;93301.59;;;21.83;58.38
59289;BME280;45056;47.602;9.886;2022-09-06T09:29:19;93311.41;;;21.89;58.10
59289;BME280;45056;47.602;9.886;2022-09-06T09:31:50;93314.91;;;21.96;57.53
59289;BME280;45056;47.602;9.886;2022-09-06T09:34:28;93318.69;;;22.04;57.65
59289;BME280;45056;47.602;9.886;2022-09-06T09:37:16;93316.38;;;22.14;57.07
59289;BME280;45056;47.602;9.886;2022-09-06T09:39:49;93310.31;;;22.21;56.67
59289;BME280;45056;47.602;9.886;2022-09-06T09:42:26;93318.34;;;22.30;56.75
59289;BME280;45056;47.602;9.886;2022-09-06T09:44:58;93316.03;;;22.40;55.25
59289;BME280;45056;47.602;9.886;2022-09-06T09:47:30;93314.78;;;22.47;54.24
59289;BME280;45056;47.602;9.886;2022-09-06T09:50:00;93312.22;;;22.55;53.32
59289;BME280;45056;47.602;9.886;2022-09-06T09:52:30;93315.44;;;22.65;52.74
59289;BME280;45056;47.602;9.886;2022-09-06T09:55:01;93315.38;;;22.76;52.17
59289;BME280;45056;47.602;9.886;2022-09-06T09:57:44;93317.56;;;22.89;51.58
59289;BME280;45056;47.602;9.886;2022-09-06T10:00:33;93325.31;;;23.02;51.15
59289;BME280;45056;47.602;9.886;2022-09-06T10:03:17;93314.16;;;23.13;50.98
59289;BME280;45056;47.602;9.886;2022-09-06T10:05:57;93316.63;;;23.23;51.08
59289;BME280;45056;47.602;9.886;2022-09-06T10:08:31;93317.34;;;23.29;51.22
59289;BME280;45056;47.602;9.886;2022-09-06T10:11:01;93314.00;;;23.36;51.61
59289;BME280;45056;47.602;9.886;2022-09-06T10:13:30;93319.25;;;23.45;52.62
59289;BME280;45056;47.602;9.886;2022-09-06T10:16:00;93313.88;;;23.53;53.14
59289;BME280;45056;47.602;9.886;2022-09-06T10:18:31;93306.50;;;23.61;53.13
59289;BME280;45056;47.602;9.886;2022-09-06T10:21:02;93311.47;;;23.69;52.15
59289;BME280;45056;47.602;9.886;2022-09-06T10:24:00;93307.16;;;23.73;52.72
59289;BME280;45056;47.602;9.886;2022-09-06T10:26:43;93315.19;;;23.77;53.37
59289;BME280;45056;47.602;9.886;2022-09-06T10:29:28;93324.28;;;23.77;53.28
59289;BME280;45056;47.602;9.886;2022-09-06T10:32:15;93316.44;;;23.76;52.69
59289;BME280;45056;47.602;9.886;2022-09-06T10:35:08;93312.72;;;23.73;51.95
59289;BME280;45056;47.602;9.886;2022-09-06T10:38:09;93311.72;;;23.71;51.33
59289;BME280;45056;47.602;9.886;2022-09-06T10:40:57;93309.97;;;23.68;51.14
59289;BME280;45056;47.602;9.886;2022-09-06T10:43:41;93308.47;;;23.67;51.61
59289;BME280;45056;47.602;9.886;2022-09-06T10:46:24;93302.91;;;23.67;51.54
59289;BME280;45056;47.602;9.886;2022-09-06T10:48:56;93302.16;;;23.66;51.52
59289;BME280;45056;47.602;9.886;2022-09-06T10:51:34;93307.69;;;23.66;51.43
59289;BME280;45056;47.602;9.886;2022-09-06T10:54:09;93310.47;;;23.66;51.44
59289;BME280;45056;47.602;9.886;2022-09-06T10:56:43;93301.69;;;23.62;51.57
59289;BME280;45056;47.602;9.886;2022-09-06T10:59:21;93301.97;;;23.58;51.08
59289;BME280;45056;47.602;9.886;2022-09-06T11:02:06;93291.38;;;23.57;51.01
59289;BME280;45056;47.602;9.886;2022-09-06T11:04:45;93291.63;;;23.59;50.95
59289;BME280;45056;47.602;9.886;2022-09-06T11:07:22;93284.28;;;23.61;51.13
59289;BME280;45056;47.602;9.886;2022-09-06T11:10:00;93294.34;;;23.65;51.34
59289;BME280;45056;47.602;9.886;2022-09-06T11:12:38;93281.44;;;23.67;50.79
59289;BME280;45056;47.602;9.886;2022-09-06T11:15:13;93287.47;;;23.71;50.92
59289;BME280;45056;47.602;9.886;2022-09-06T11:17:48;93283.16;;;23.70;50.97
59289;BME280;45056;47.602;9.886;2022-09-06T11:20:32;93272.59;;;23.69;51.42
59289;BME280;45056;47.602;9.886;2022-09-06T11:23:26;93270.09;;;23.65;51.16
59289;BME280;45056;47.602;9.886;2022-09-06T11:26:28;93266.13;;;23.60;51.38
59289;BME280;45056;47.602;9.886;2022-09-06T11:29:04;93261.06;;;23.59;51.61
59289;BME280;45056;47.602;9.886;2022-09-06T11:31:50;93263.84;;;23.59;51.78
59289;BME280;45056;47.602;9.886;2022-09-06T11:34:24;93272.72;;;23.57;51.77
59289;BME280;45056;47.602;9.886;2022-09-06T11:36:57;93272.44;;;23.55;51.68
59289;BME280;45056;47.602;9.886;2022-09-06T11:39:30;93271.47;;;23.53;51.99
59289;BME280;45056;47.602;9.886;2022-09-06T11:42:06;93265.22;;;23.46;52.42
59289;BME280;45056;47.602;9.886;2022-09-06T11:44:53;93267.53;;;23.42;52.60
59289;BME280;45056;47.602;9.886;2022-09-06T11:47:44;93274.88;;;23.40;52.98
59289;BME280;45056;47.602;9.886;2022-09-06T11:50:23;93271.88;;;23.38;53.35
59289;BME280;45056;47.602;9.886;2022-09-06T11:53:16;93271.63;;;23.36;53.58
59289;BME280;45056;47.602;9.886;2022-09-06T11:55:47;93269.59;;;23.36;53.89
59289;BME280;45056;47.602;9.886;2022-09-06T11:58:27;93264.03;;;23.36;53.81
59289;BME280;45056;47.602;9.886;2022-09-06T12:01:32;93263.53;;;23.38;53.74
59289;BME280;45056;47.602;9.886;2022-09-06T12:04:07;93260.47;;;23.41;53.76
59289;BME280;45056;47.602;9.886;2022-09-06T12:06:39;93264.75;;;23.42;53.70
59289;BME280;45056;47.602;9.886;2022-09-06T12:09:31;93257.94;;;23.43;53.69
59289;BME280;45056;47.602;9.886;2022-09-06T12:12:02;93261.44;;;23.44;53.85
59289;BME280;45056;47.602;9.886;2022-09-06T12:14:34;93259.69;;;23.46;53.67
59289;BME280;45056;47.602;9.886;2022-09-06T12:17:23;93261.41;;;23.49;53.92
59289;BME280;45056;47.602;9.886;2022-09-06T12:19:55;93261.66;;;23.52;53.96
59289;BME280;45056;47.602;9.886;2022-09-06T12:22:51;93256.31;;;23.54;53.94
59289;BME280;45056;47.602;9.886;2022-09-06T12:25:55;93261.59;;;23.57;54.06
59289;BME280;45056;47.602;9.886;2022-09-06T12:28:41;93257.56;;;23.58;54.24
59289;BME280;45056;47.602;9.886;2022-09-06T12:31:36;93262.34;;;23.58;54.50
59289;BME280;45056;47.602;9.886;2022-09-06T12:34:10;93257.56;;;23.58;54.66
59289;BME280;45056;47.602;9.886;2022-09-06T12:36:52;93256.03;;;23.57;54.97
59289;BME280;45056;47.602;9.886;2022-09-06T12:39:23;93256.03;;;23.57;55.23
59289;BME280;45056;47.602;9.886;2022-09-06T12:41:56;93249.72;;;23.57;55.43
59289;BME280;45056;47.602;9.886;2022-09-06T12:44:34;93248.00;;;23.54;55.29
59289;BME280;45056;47.602;9.886;2022-09-06T12:47:09;93244.22;;;23.51;54.93
59289;BME280;45056;47.602;9.886;2022-09-06T12:49:41;93235.88;;;23.51;54.78
59289;BME280;45056;47.602;9.886;2022-09-06T12:52:12;93241.44;;;23.51;55.10
59289;BME280;45056;47.602;9.886;2022-09-06T12:54:44;93230.34;;;23.51;55.38
59289;BME280;45056;47.602;9.886;2022-09-06T12:57:20;93234.09;;;23.54;55.57
59289;BME280;45056;47.602;9.886;2022-09-06T12:59:52;93238.38;;;23.55;55.59
59289;BME280;45056;47.602;9.886;2022-09-06T13:02:28;93229.56;;;23.56;55.69
59289;BME280;45056;47.602;9.886;2022-09-06T13:05:05;93217.41;;;23.59;55.43
59289;BME280;45056;47.602;9.886;2022-09-06T13:07:41;93211.84;;;23.59;55.14
59289;BME280;45056;47.602;9.886;2022-09-06T13:10:16;93214.84;;;23.61;55.09
59289;BME280;45056;47.602;9.886;2022-09-06T13:12:49;93206.22;;;23.65;55.04
59289;BME280;45056;47.602;9.886;2022-09-06T13:15:22;93203.66;;;23.67;55.03
59289;BME280;45056;47.602;9.886;2022-09-06T13:17:53;93197.06;;;23.70;54.84
59289;BME280;45056;47.602;9.886;2022-09-06T13:20:42;93193.03;;;23.71;55.01
59289;BME280;45056;47.602;9.886;2022-09-06T13:23:12;93189.00;;;23.72;54.92
59289;BME280;45056;47.602;9.886;2022-09-06T13:25:48;93175.09;;;23.72;54.80
59289;BME280;45056;47.602;9.886;2022-09-06T13:28:30;93179.38;;;23.73;54.39
59289;BME280;45056;47.602;9.886;2022-09-06T13:31:07;93166.22;;;23.74;54.69
59289;BME280;45056;47.602;9.886;2022-09-06T13:33:39;93162.72;;;23.73;54.65
59289;BME280;45056;47.602;9.886;2022-09-06T13:36:20;93159.72;;;23.71;54.83
59289;BME280;45056;47.602;9.886;2022-09-06T13:38:51;93160.00;;;23.68;55.01
59289;BME280;45056;47.602;9.886;2022-09-06T13:41:37;93165.59;;;23.62;55.61